Time;durP1;ratioP1;P1;durP2;ratioP2;P2;SDS_P1;SDS_P2;PMS_P1;PMS_P2;Temp;Humidity;BMP_temperature;BMP_pressure;BME280_temperature;BME280_humidity;BME280_pressure;Samples;Min_cycle;Max_cycle;Signal;HPM_P1;HPM_P2
2023/05/22 00:02:08;;;;;;;7.50;6.80;;;;;;;;;;5039034;28;20211;-28
2023/05/22 00:04:35;;;;;;;9.27;5.97;;;;;;;;;;5046682;28;20220;-30
2023/05/22 00:07:03;;;;;;;7.93;6.17;;;;;;;;;;5049089;28;20223;-28
2023/05/22 00:09:30;;;;;;;11.10;7.33;;;;;;;;;;5045209;28;20205;-29
2023/05/22 00:11:57;;;;;;;7.27;6.53;;;;;;;;;;5044145;28;20203;-29
2023/05/22 00:14:24;;;;;;;6.87;6.17;;;;;;;;;;5049013;28;20206;-28
2023/05/22 00:16:52;;;;;;;8.73;6.63;;;;;;;;;;5037841;28;20218;-28
2023/05/22 00:19:21;;;;;;;9.27;6.80;;;;;;;;;;5046338;28;20226;-26
2023/05/22 00:21:50;;;;;;;9.03;7.10;;;;;;;;;;5049015;28;20214;-27
2023/05/22 00:24:18;;;;;;;7.80;6.90;;;;;;;;;;5042997;28;20206;-29
2023/05/22 00:26:46;;;;;;;7.57;6.77;;;;;;;;;;5043906;28;20230;-26
2023/05/22 00:29:13;;;;;;;7.60;6.80;;;;;;;;;;5051111;28;20209;-29
2023/05/22 00:31:40;;;;;;;8.43;6.47;;;;;;;;;;5044856;28;20211;-30
2023/05/22 00:34:07;;;;;;;6.93;6.00;;;;;;;;;;5050639;28;20216;-29
2023/05/22 00:36:34;;;;;;;6.30;5.70;;;;;;;;;;5041247;28;20324;-26
2023/05/22 00:39:02;;;;;;;7.10;6.40;;;;;;;;;;5032240;28;20210;-30
2023/05/22 00:41:32;;;;;;;8.10;6.63;;;;;;;;;;5046208;28;20206;-28
2023/05/22 00:44:00;;;;;;;7.20;6.20;;;;;;;;;;5052418;28;20202;-27
2023/05/22 00:46:27;;;;;;;7.80;6.60;;;;;;;;;;5046502;28;20222;-26
2023/05/22 00:48:54;;;;;;;10.17;6.83;;;;;;;;;;5052243;28;20222;-27
2023/05/22 00:51:21;;;;;;;6.77;6.00;;;;;;;;;;5050888;28;20202;-29
2023/05/22 00:53:49;;;;;;;8.40;6.40;;;;;;;;;;5050047;28;20203;-26
2023/05/22 00:56:17;;;;;;;6.60;5.90;;;;;;;;;;5052058;28;20218;-30
2023/05/22 00:58:45;;;;;;;8.67;6.20;;;;;;;;;;5052519;28;20199;-29
2023/05/22 01:01:12;;;;;;;7.23;6.43;;;;;;;;;;5042269;28;20210;-26
2023/05/22 01:03:43;;;;;;;9.83;6.77;;;;;;;;;;5049431;28;20511;-27
2023/05/22 01:06:10;;;;;;;7.27;6.53;;;;;;;;;;5050615;28;20291;-30
2023/05/22 01:08:37;;;;;;;8.77;6.80;;;;;;;;;;5048055;28;20202;-29
2023/05/22 01:11:09;;;;;;;7.50;6.00;;;;;;;;;;5041947;28;20203;-26
2023/05/22 01:13:41;;;;;;;6.53;5.93;;;;;;;;;;5051852;28;20412;-25
2023/05/22 01:16:13;;;;;;;7.30;6.30;;;;;;;;;;5047145;28;20237;-25
2023/05/22 01:18:44;;;;;;;8.17;6.93;;;;;;;;;;5055072;28;20243;-29
2023/05/22 01:21:14;;;;;;;7.97;7.17;;;;;;;;;;5053244;28;20207;-29
2023/05/22 01:23:56;;;;;;;7.37;6.67;;;;;;;;;;5046327;28;20202;-28
2023/05/22 01:26:32;;;;;;;8.13;6.43;;;;;;;;;;5046667;28;20642;-25
2023/05/22 01:29:09;;;;;;;7.50;6.80;;;;;;;;;;5052041;28;20203;-26
2023/05/22 01:31:40;;;;;;;9.70;7.00;;;;;;;;;;5047088;28;20243;-27
2023/05/22 01:34:08;;;;;;;7.10;6.40;;;;;;;;;;5049848;28;20241;-31
2023/05/22 01:36:37;;;;;;;7.20;6.50;;;;;;;;;;5043114;28;20513;-28
2023/05/22 01:39:05;;;;;;;8.00;6.87;;;;;;;;;;5308722;22;20275;-35
2023/05/22 01:41:32;;;;;;;7.90;6.87;;;;;;;;;;5046442;28;20270;-32
2023/05/22 01:44:00;;;;;;;7.37;6.67;;;;;;;;;;5045006;28;20206;-34
2023/05/22 01:46:28;;;;;;;7.53;6.53;;;;;;;;;;5031181;28;20227;-34
2023/05/22 01:48:56;;;;;;;8.37;7.50;;;;;;;;;;5034941;28;20202;-33
2023/05/22 01:51:28;;;;;;;9.13;7.23;;;;;;;;;;5039196;28;20202;-32
2023/05/22 01:53:58;;;;;;;8.13;7.00;;;;;;;;;;5022531;28;20213;-31
2023/05/22 01:56:31;;;;;;;7.77;6.97;;;;;;;;;;5033723;28;20245;-35
2023/05/22 01:59:02;;;;;;;7.93;6.40;;;;;;;;;;5031154;28;20198;-32
2023/05/22 02:01:31;;;;;;;7.97;7.10;;;;;;;;;;5024183;28;20212;-35
2023/05/22 02:04:01;;;;;;;8.00;7.20;;;;;;;;;;5038554;28;20218;-33
2023/05/22 02:06:31;;;;;;;8.87;6.80;;;;;;;;;;5029866;28;20237;-33
2023/05/22 02:08:58;;;;;;;8.13;7.10;;;;;;;;;;5030214;28;20249;-32
2023/05/22 02:11:27;;;;;;;7.27;6.50;;;;;;;;;;5029941;28;20221;-29
2023/05/22 02:13:54;;;;;;;7.30;6.57;;;;;;;;;;5037173;28;20199;-33
2023/05/22 02:16:21;;;;;;;6.83;6.13;;;;;;;;;;5022998;28;20226;-34
2023/05/22 02:18:48;;;;;;;8.50;6.30;;;;;;;;;;5040203;28;20213;-33
2023/05/22 02:21:17;;;;;;;7.87;6.47;;;;;;;;;;5129642;22;20239;-32
2023/05/22 02:23:44;;;;;;;8.80;6.73;;;;;;;;;;5047852;28;20209;-31
2023/05/22 02:26:11;;;;;;;10.40;6.67;;;;;;;;;;5034014;28;20230;-35
2023/05/22 02:28:38;;;;;;;8.10;6.40;;;;;;;;;;5041021;28;20541;-33
2023/05/22 02:31:05;;;;;;;9.87;6.63;;;;;;;;;;5035598;28;20207;-34
2023/05/22 02:33:32;;;;;;;9.07;6.73;;;;;;;;;;5028481;28;20245;-33
2023/05/22 02:35:59;;;;;;;8.37;7.47;;;;;;;;;;5049924;28;20425;-31
2023/05/22 02:38:28;;;;;;;8.97;6.90;;;;;;;;;;5020311;28;20206;-33
2023/05/22 02:40:55;;;;;;;6.57;5.97;;;;;;;;;;5023750;28;20590;-34
2023/05/22 02:43:22;;;;;;;7.63;6.83;;;;;;;;;;5030181;28;20539;-34
2023/05/22 02:45:49;;;;;;;7.13;6.43;;;;;;;;;;5035189;28;20320;-34
2023/05/22 02:48:16;;;;;;;7.20;6.40;;;;;;;;;;5032306;28;20202;-33
2023/05/22 02:50:43;;;;;;;7.47;6.67;;;;;;;;;;5022185;28;20215;-33
2023/05/22 02:53:10;;;;;;;6.83;6.20;;;;;;;;;;5029291;28;20198;-33
2023/05/22 02:55:39;;;;;;;8.00;6.37;;;;;;;;;;5028864;28;20236;-31
2023/05/22 02:58:10;;;;;;;7.03;6.33;;;;;;;;;;5030831;28;20203;-34
2023/05/22 03:00:37;;;;;;;8.60;6.63;;;;;;;;;;5024133;28;20581;-32
2023/05/22 03:03:05;;;;;;;6.73;6.00;;;;;;;;;;5028009;28;20301;-32
2023/05/22 03:05:32;;;;;;;7.87;7.03;;;;;;;;;;5029926;28;20233;-35
2023/05/22 03:08:00;;;;;;;7.47;6.67;;;;;;;;;;5030168;28;20210;-31
2023/05/22 03:10:27;;;;;;;8.43;6.23;;;;;;;;;;5018462;28;20688;-34
2023/05/22 03:12:55;;;;;;;7.10;6.40;;;;;;;;;;5034108;28;20218;-35
2023/05/22 03:15:22;;;;;;;8.37;6.80;;;;;;;;;;5025045;28;20227;-33
2023/05/22 03:17:50;;;;;;;7.87;5.80;;;;;;;;;;5033476;28;20209;-33
2023/05/22 03:20:17;;;;;;;6.80;6.20;;;;;;;;;;5047062;28;20199;-35
2023/05/22 03:22:44;;;;;;;8.47;5.60;;;;;;;;;;5050048;28;20206;-31
2023/05/22 03:25:11;;;;;;;7.30;6.60;;;;;;;;;;5037885;28;20283;-32
2023/05/22 03:27:39;;;;;;;7.43;6.03;;;;;;;;;;5027181;28;20226;-34
2023/05/22 03:30:11;;;;;;;7.90;6.63;;;;;;;;;;5032650;28;20205;-35
2023/05/22 03:32:39;;;;;;;9.03;7.23;;;;;;;;;;5030823;28;20201;-31
2023/05/22 03:35:06;;;;;;;10.03;7.53;;;;;;;;;;5049663;28;20565;-34
2023/05/22 03:37:33;;;;;;;8.17;7.17;;;;;;;;;;5050235;28;20242;-32
2023/05/22 03:40:00;;;;;;;9.63;7.13;;;;;;;;;;5028566;28;20199;-33
2023/05/22 03:42:27;;;;;;;9.83;6.90;;;;;;;;;;5023416;28;20207;-31
2023/05/22 03:44:54;;;;;;;7.83;7.03;;;;;;;;;;5028849;28;20202;-31
2023/05/22 03:47:23;;;;;;;7.67;6.87;;;;;;;;;;5027022;28;20237;-32
2023/05/22 03:49:50;;;;;;;7.70;6.90;;;;;;;;;;5047753;28;20199;-30
2023/05/22 03:52:17;;;;;;;7.17;6.47;;;;;;;;;;5032723;28;20218;-31
2023/05/22 03:54:44;;;;;;;7.27;6.37;;;;;;;;;;5023533;28;20210;-31
2023/05/22 03:57:11;;;;;;;8.47;7.10;;;;;;;;;;5032021;28;20226;-34
2023/05/22 03:59:38;;;;;;;8.73;7.23;;;;;;;;;;5042301;28;20202;-34
2023/05/22 04:02:05;;;;;;;6.53;5.93;;;;;;;;;;5036569;28;20202;-32
2023/05/22 04:04:37;;;;;;;6.83;6.23;;;;;;;;;;5041952;28;20202;-36
2023/05/22 04:07:06;;;;;;;7.63;6.27;;;;;;;;;;5052104;28;20226;-31
2023/05/22 04:09:34;;;;;;;7.10;6.40;;;;;;;;;;5031412;28;20208;-33
2023/05/22 04:12:02;;;;;;;8.27;6.60;;;;;;;;;;5039364;28;20519;-34
2023/05/22 04:14:29;;;;;;;6.67;5.93;;;;;;;;;;5040749;28;20216;-30
2023/05/22 04:16:56;;;;;;;7.30;6.53;;;;;;;;;;5026339;28;20242;-34
2023/05/22 04:19:23;;;;;;;8.67;7.03;;;;;;;;;;5036405;28;20217;-34
2023/05/22 04:21:52;;;;;;;7.67;6.93;;;;;;;;;;5316885;22;20236;-34
2023/05/22 04:24:21;;;;;;;8.20;6.83;;;;;;;;;;5045131;28;20207;-32
2023/05/22 04:26:48;;;;;;;9.60;6.63;;;;;;;;;;5029521;28;20226;-34
2023/05/22 04:29:16;;;;;;;7.73;6.93;;;;;;;;;;5049614;28;20458;-32
2023/05/22 04:31:43;;;;;;;7.20;6.50;;;;;;;;;;5030592;28;20443;-31
2023/05/22 04:34:11;;;;;;;9.73;6.83;;;;;;;;;;5032650;28;20210;-32
2023/05/22 04:36:38;;;;;;;7.63;6.80;;;;;;;;;;5032946;28;20219;-31
2023/05/22 04:39:07;;;;;;;8.53;6.80;;;;;;;;;;5030901;28;20214;-32
2023/05/22 04:41:34;;;;;;;9.70;7.10;;;;;;;;;;5040287;28;20207;-33
2023/05/22 04:44:02;;;;;;;9.07;7.50;;;;;;;;;;5046075;28;20210;-35
2023/05/22 04:46:30;;;;;;;8.47;7.10;;;;;;;;;;5026071;28;20226;-33
2023/05/22 04:49:00;;;;;;;8.33;7.27;;;;;;;;;;5040862;28;20202;-30
2023/05/22 04:51:28;;;;;;;8.00;7.17;;;;;;;;;;5034922;28;20298;-32
2023/05/22 04:53:57;;;;;;;8.13;7.07;;;;;;;;;;5019859;28;20210;-33
2023/05/22 04:56:26;;;;;;;8.47;6.67;;;;;;;;;;5033509;28;20226;-34
2023/05/22 04:58:54;;;;;;;10.23;7.80;;;;;;;;;;5051825;28;20243;-33
2023/05/22 05:01:22;;;;;;;8.10;7.30;;;;;;;;;;5031277;28;20217;-34
2023/05/22 05:03:49;;;;;;;13.07;7.63;;;;;;;;;;5041943;28;20211;-31
2023/05/22 05:06:17;;;;;;;8.00;7.20;;;;;;;;;;5031530;28;20219;-31
2023/05/22 05:08:46;;;;;;;7.73;6.93;;;;;;;;;;5023111;28;20276;-32
2023/05/22 05:11:13;;;;;;;7.33;6.63;;;;;;;;;;5029133;28;20202;-34
2023/05/22 05:13:42;;;;;;;9.33;7.27;;;;;;;;;;5039950;28;20203;-32
2023/05/22 05:16:09;;;;;;;7.90;7.10;;;;;;;;;;5021767;28;20231;-35
2023/05/22 05:18:36;;;;;;;10.90;7.67;;;;;;;;;;5043331;28;20204;-34
2023/05/22 05:21:03;;;;;;;8.10;7.30;;;;;;;;;;5302679;22;20213;-32
2023/05/22 05:23:30;;;;;;;13.13;7.37;;;;;;;;;;5048262;28;20202;-32
2023/05/22 05:25:58;;;;;;;10.57;8.20;;;;;;;;;;5031878;28;20223;-34
2023/05/22 05:28:25;;;;;;;10.67;7.73;;;;;;;;;;5029889;28;20235;-33
2023/05/22 05:30:53;;;;;;;9.30;7.63;;;;;;;;;;5037220;28;20199;-32
2023/05/22 05:33:21;;;;;;;10.87;7.90;;;;;;;;;;5040770;28;20211;-31
2023/05/22 05:35:49;;;;;;;7.87;7.03;;;;;;;;;;5030516;28;20226;-33
2023/05/22 05:38:16;;;;;;;8.13;7.33;;;;;;;;;;5032091;28;20198;-32
2023/05/22 05:40:44;;;;;;;9.00;7.90;;;;;;;;;;5028320;28;20259;-34
2023/05/22 05:43:13;;;;;;;10.37;7.73;;;;;;;;;;5040814;28;20217;-32
2023/05/22 05:45:41;;;;;;;11.70;8.00;;;;;;;;;;5035296;28;20233;-34
2023/05/22 05:48:10;;;;;;;11.47;8.00;;;;;;;;;;5030347;28;20233;-32
2023/05/22 05:50:37;;;;;;;11.90;8.07;;;;;;;;;;5052005;28;20206;-33
2023/05/22 05:53:05;;;;;;;10.07;8.47;;;;;;;;;;5027156;28;20202;-34
2023/05/22 05:55:32;;;;;;;13.13;7.90;;;;;;;;;;5024157;28;20330;-33
2023/05/22 05:57:59;;;;;;;9.37;7.93;;;;;;;;;;5035936;28;20202;-34
2023/05/22 06:00:26;;;;;;;11.10;8.33;;;;;;;;;;5030374;28;20204;-33
2023/05/22 06:02:53;;;;;;;8.80;7.90;;;;;;;;;;5023862;28;20195;-32
2023/05/22 06:05:22;;;;;;;8.77;7.87;;;;;;;;;;5037388;28;20275;-33
2023/05/22 06:07:49;;;;;;;10.90;9.03;;;;;;;;;;5029001;28;20239;-35
2023/05/22 06:10:16;;;;;;;8.80;7.90;;;;;;;;;;5023074;28;20206;-31
2023/05/22 06:12:44;;;;;;;12.63;8.70;;;;;;;;;;5036066;28;20211;-34
2023/05/22 06:15:12;;;;;;;10.17;8.63;;;;;;;;;;5031899;28;20211;-31
2023/05/22 06:17:39;;;;;;;10.07;8.43;;;;;;;;;;5031823;28;20198;-32
2023/05/22 06:20:07;;;;;;;11.27;9.07;;;;;;;;;;5022122;28;20204;-31
2023/05/22 06:22:36;;;;;;;12.47;9.90;;;;;;;;;;5035905;28;20242;-34
2023/05/22 06:25:04;;;;;;;9.87;8.57;;;;;;;;;;5033214;28;20208;-32
2023/05/22 06:27:31;;;;;;;10.07;8.80;;;;;;;;;;5029197;28;20225;-31
2023/05/22 06:29:59;;;;;;;11.30;8.73;;;;;;;;;;5031881;28;20199;-34
2023/05/22 06:32:26;;;;;;;9.37;7.57;;;;;;;;;;5034096;28;20222;-35
2023/05/22 06:34:53;;;;;;;9.30;8.27;;;;;;;;;;5036141;28;20208;-32
2023/05/22 06:37:20;;;;;;;11.13;8.77;;;;;;;;;;5028395;28;20200;-33
2023/05/22 06:39:49;;;;;;;11.00;8.80;;;;;;;;;;5028201;28;20202;-33
2023/05/22 06:42:16;;;;;;;9.47;8.57;;;;;;;;;;5037710;28;20211;-33
2023/05/22 06:44:43;;;;;;;11.13;9.00;;;;;;;;;;5049864;28;20629;-28
2023/05/22 06:47:32;;;;;;;11.03;7.53;;;;;;;;;;5017775;28;20240;-32
2023/05/22 06:49:59;;;;;;;9.40;8.20;;;;;;;;;;5021839;28;20208;-31
2023/05/22 06:52:26;;;;;;;9.00;8.13;;;;;;;;;;5014953;28;20202;-29
2023/05/22 06:55:03;;;;;;;15.20;8.57;;;;;;;;;;5049301;28;20224;-34
2023/05/22 06:57:30;;;;;;;11.27;8.40;;;;;;;;;;5050415;28;20605;-34
2023/05/22 06:59:57;;;;;;;9.37;8.27;;;;;;;;;;5042432;28;20205;-34
2023/05/22 07:02:24;;;;;;;12.47;9.90;;;;;;;;;;5018059;28;20215;-32
2023/05/22 07:04:52;;;;;;;10.30;8.43;;;;;;;;;;5038245;28;20208;-35
2023/05/22 07:07:19;;;;;;;11.83;8.47;;;;;;;;;;5033873;28;20225;-33
2023/05/22 07:09:46;;;;;;;8.90;8.00;;;;;;;;;;5030099;28;20210;-34
2023/05/22 07:12:15;;;;;;;9.73;8.00;;;;;;;;;;5021342;28;20297;-33
2023/05/22 07:14:42;;;;;;;9.48;8.13;;;;;;;;;;5029924;28;20202;-31
2023/05/22 07:17:09;;;;;;;12.20;8.60;;;;;;;;;;5026490;28;20233;-32
2023/05/22 07:19:36;;;;;;;10.60;9.50;;;;;;;;;;5032285;28;20206;-34
2023/05/22 07:22:03;;;;;;;10.15;8.57;;;;;;;;;;5028401;28;20211;-31
2023/05/22 07:24:31;;;;;;;9.68;8.68;;;;;;;;;;5027083;28;20215;-32
2023/05/22 07:26:58;;;;;;;11.75;9.45;;;;;;;;;;5018254;28;20223;-32
2023/05/22 07:29:27;;;;;;;15.00;9.25;;;;;;;;;;5039999;28;20695;-33
2023/05/22 07:31:54;;;;;;;9.88;8.85;;;;;;;;;;5029810;28;20221;-35
2023/05/22 07:34:22;;;;;;;12.32;8.88;;;;;;;;;;5036463;28;20211;-34
2023/05/22 07:36:49;;;;;;;12.52;9.43;;;;;;;;;;5050959;28;20230;-30
2023/05/22 07:39:16;;;;;;;11.63;8.60;;;;;;;;;;5027383;28;20212;-31
2023/05/22 07:41:49;;;;;;;9.73;8.75;;;;;;;;;;5149080;22;20235;-29
2023/05/22 07:44:16;;;;;;;9.95;8.35;;;;;;;;;;5061920;28;20695;-26
2023/05/22 07:46:45;;;;;;;10.45;8.77;;;;;;;;;;5052046;28;20224;-31
2023/05/22 07:49:15;;;;;;;12.27;9.05;;;;;;;;;;5052740;28;20306;-29
2023/05/22 07:51:43;;;;;;;12.10;8.68;;;;;;;;;;5056824;28;20203;-28
2023/05/22 07:54:10;;;;;;;11.98;9.50;;;;;;;;;;5048364;28;20210;-29
2023/05/22 07:56:39;;;;;;;15.45;8.38;;;;;;;;;;5055768;28;20223;-27
2023/05/22 07:59:07;;;;;;;10.60;9.43;;;;;;;;;;5054632;28;20235;-30
2023/05/22 08:01:36;;;;;;;12.88;9.85;;;;;;;;;;5047754;28;20681;-31
2023/05/22 08:04:05;;;;;;;14.10;10.15;;;;;;;;;;5054040;28;20588;-30
2023/05/22 08:06:33;;;;;;;11.52;8.35;;;;;;;;;;5056069;28;20227;-27
2023/05/22 08:09:01;;;;;;;12.57;8.82;;;;;;;;;;5053952;28;20269;-29
2023/05/22 08:11:28;;;;;;;10.57;8.98;;;;;;;;;;5046078;28;20208;-29
2023/05/22 08:13:55;;;;;;;12.45;8.75;;;;;;;;;;5049203;28;20674;-27
2023/05/22 08:16:22;;;;;;;10.55;8.63;;;;;;;;;;5047382;28;20228;-30
2023/05/22 08:18:50;;;;;;;11.60;8.80;;;;;;;;;;5051626;28;20208;-30
2023/05/22 08:21:19;;;;;;;9.50;8.43;;;;;;;;;;5053420;28;20200;-30
2023/05/22 08:23:46;;;;;;;10.07;9.05;;;;;;;;;;5052971;28;20206;-27
2023/05/22 08:26:13;;;;;;;14.13;9.13;;;;;;;;;;5051343;28;20240;-29
2023/05/22 08:28:43;;;;;;;11.23;9.10;;;;;;;;;;5052856;28;20686;-31
2023/05/22 08:31:10;;;;;;;9.93;8.93;;;;;;;;;;5048223;28;20269;-31
2023/05/22 08:33:37;;;;;;;9.77;8.63;;;;;;;;;;5051657;28;20211;-30
2023/05/22 08:36:04;;;;;;;12.38;9.35;;;;;;;;;;5045124;28;20601;-26
2023/05/22 08:38:33;;;;;;;9.65;8.32;;;;;;;;;;5046181;28;20209;-29
2023/05/22 08:41:00;;;;;;;11.70;8.98;;;;;;;;;;5046462;28;20216;-31
2023/05/22 08:43:28;;;;;;;9.82;8.70;;;;;;;;;;5054710;28;20212;-28
2023/05/22 08:45:57;;;;;;;11.80;9.30;;;;;;;;;;5036752;28;20232;-30
2023/05/22 08:48:24;;;;;;;13.50;9.50;;;;;;;;;;5042875;28;20227;-31
2023/05/22 08:50:56;;;;;;;9.85;8.55;;;;;;;;;;5047703;28;20280;-28
2023/05/22 08:53:24;;;;;;;10.63;9.50;;;;;;;;;;5048510;28;20258;-31
2023/05/22 08:55:54;;;;;;;12.13;9.07;;;;;;;;;;5042751;28;20246;-29
2023/05/22 08:58:21;;;;;;;11.05;8.75;;;;;;;;;;5044979;28;20215;-30
2023/05/22 09:00:48;;;;;;;12.68;8.88;;;;;;;;;;5043477;28;20597;-30
2023/05/22 09:03:17;;;;;;;9.80;8.80;;;;;;;;;;5046098;28;20555;-28
2023/05/22 09:05:44;;;;;;;10.18;9.18;;;;;;;;;;5046656;28;20247;-30
2023/05/22 09:08:11;;;;;;;11.63;9.35;;;;;;;;;;5048492;28;20223;-29
2023/05/22 09:10:39;;;;;;;10.05;8.75;;;;;;;;;;5040124;28;20207;-27
2023/05/22 09:13:10;;;;;;;9.85;8.88;;;;;;;;;;5043093;28;20601;-32
2023/05/22 09:15:43;;;;;;;11.13;9.52;;;;;;;;;;5043616;28;20220;-28
2023/05/22 09:18:10;;;;;;;12.25;9.00;;;;;;;;;;5041822;28;20214;-28
2023/05/22 09:20:38;;;;;;;12.13;9.55;;;;;;;;;;5048966;28;20200;-32
2023/05/22 09:23:11;;;;;;;13.90;9.50;;;;;;;;;;5047087;28;20210;-27
2023/05/22 09:25:38;;;;;;;13.57;9.27;;;;;;;;;;5042973;28;20220;-28
2023/05/22 09:28:05;;;;;;;11.40;9.27;;;;;;;;;;5042467;28;20223;-29
2023/05/22 09:30:36;;;;;;;11.30;8.70;;;;;;;;;;5039274;28;20207;-28
2023/05/22 09:33:03;;;;;;;11.80;9.20;;;;;;;;;;5045035;28;20207;-29
2023/05/22 09:35:32;;;;;;;13.32;9.23;;;;;;;;;;5047547;28;20224;-31
2023/05/22 09:37:59;;;;;;;11.05;9.85;;;;;;;;;;5042843;28;20541;-30
2023/05/22 09:40:27;;;;;;;10.55;8.73;;;;;;;;;;5043937;28;20219;-30
2023/05/22 09:42:55;;;;;;;11.60;10.30;;;;;;;;;;5050333;28;20208;-28
2023/05/22 09:45:22;;;;;;;10.98;9.65;;;;;;;;;;5045203;28;20229;-31
2023/05/22 09:47:53;;;;;;;15.00;10.70;;;;;;;;;;5043818;28;20216;-30
2023/05/22 09:50:20;;;;;;;10.23;9.02;;;;;;;;;;5045382;28;20211;-29
2023/05/22 09:52:48;;;;;;;11.63;9.70;;;;;;;;;;5050760;28;20222;-29
2023/05/22 09:55:17;;;;;;;13.05;10.13;;;;;;;;;;5046319;28;20232;-28
2023/05/22 09:57:45;;;;;;;14.07;9.85;;;;;;;;;;5042138;28;20203;-28
2023/05/22 10:00:14;;;;;;;12.60;9.40;;;;;;;;;;5044425;28;20625;-30
2023/05/22 10:02:43;;;;;;;10.90;9.80;;;;;;;;;;5044150;28;20264;-27
2023/05/22 10:05:14;;;;;;;10.65;9.32;;;;;;;;;;5045605;28;20254;-26
2023/05/22 10:07:44;;;;;;;9.77;8.77;;;;;;;;;;5046893;28;20200;-30
2023/05/22 10:10:12;;;;;;;10.00;9.00;;;;;;;;;;5042042;28;20208;-26
2023/05/22 10:12:42;;;;;;;10.35;9.25;;;;;;;;;;5044395;28;20212;-29
2023/05/22 10:15:10;;;;;;;12.68;9.48;;;;;;;;;;5037261;28;20216;-28
2023/05/22 10:17:38;;;;;;;14.65;9.38;;;;;;;;;;5043807;28;20218;-30
2023/05/22 10:20:07;;;;;;;11.32;9.57;;;;;;;;;;5051920;28;20203;-24
2023/05/22 10:22:37;;;;;;;12.23;9.88;;;;;;;;;;5048094;28;20302;-30
2023/05/22 10:25:04;;;;;;;11.88;10.05;;;;;;;;;;5039036;28;20234;-32
2023/05/22 10:27:32;;;;;;;11.30;9.68;;;;;;;;;;5043795;28;20246;-26
2023/05/22 10:30:02;;;;;;;15.25;9.57;;;;;;;;;;5044433;28;20219;-31
2023/05/22 10:32:34;;;;;;;11.05;9.77;;;;;;;;;;5042818;28;20718;-27
2023/05/22 10:35:04;;;;;;;11.52;9.82;;;;;;;;;;5045344;28;20579;-29
2023/05/22 10:37:42;;;;;;;15.50;10.65;;;;;;;;;;5046173;28;20209;-30
2023/05/22 10:40:11;;;;;;;11.13;10.00;;;;;;;;;;5037329;28;20199;-27
2023/05/22 10:42:38;;;;;;;13.25;10.60;;;;;;;;;;5045777;28;20366;-28
2023/05/22 10:45:07;;;;;;;12.85;11.45;;;;;;;;;;5044499;28;20208;-29
2023/05/22 10:47:35;;;;;;;14.70;10.50;;;;;;;;;;5040224;28;20222;-27
2023/05/22 10:50:07;;;;;;;14.07;10.80;;;;;;;;;;5031686;28;20255;-27
2023/05/22 10:52:41;;;;;;;15.20;11.48;;;;;;;;;;5034412;28;20206;-29
2023/05/22 10:55:08;;;;;;;14.32;11.20;;;;;;;;;;5047827;28;20219;-24
2023/05/22 10:57:37;;;;;;;11.45;10.10;;;;;;;;;;5038020;28;20532;-30
2023/05/22 11:00:08;;;;;;;15.07;10.10;;;;;;;;;;5038121;28;20210;-28
2023/05/22 11:02:39;;;;;;;14.43;9.98;;;;;;;;;;5040027;28;20576;-30
2023/05/22 11:05:24;;;;;;;13.65;10.52;;;;;;;;;;5042585;28;20218;-29
2023/05/22 11:07:53;;;;;;;14.00;10.65;;;;;;;;;;5043856;28;20199;-28
2023/05/22 11:10:26;;;;;;;11.73;10.52;;;;;;;;;;5042847;28;20600;-27
2023/05/22 11:13:03;;;;;;;10.63;9.32;;;;;;;;;;5042142;28;20717;-29
2023/05/22 11:15:31;;;;;;;13.40;11.05;;;;;;;;;;5034090;28;20262;-28
2023/05/22 11:18:02;;;;;;;14.95;9.75;;;;;;;;;;5041914;28;20199;-28
2023/05/22 11:20:29;;;;;;;13.50;10.77;;;;;;;;;;5043655;28;20198;-28
2023/05/22 11:22:59;;;;;;;10.23;8.98;;;;;;;;;;5046080;28;20210;-30
2023/05/22 11:25:27;;;;;;;11.48;9.00;;;;;;;;;;5038119;28;20684;-30
2023/05/22 11:27:55;;;;;;;12.80;10.18;;;;;;;;;;5043544;28;20211;-27
2023/05/22 11:30:25;;;;;;;15.38;9.32;;;;;;;;;;5040224;28;20315;-29
2023/05/22 11:32:53;;;;;;;12.10;9.63;;;;;;;;;;5043375;28;20230;-28
2023/05/22 11:35:21;;;;;;;13.00;10.18;;;;;;;;;;5043934;28;20252;-27
2023/05/22 11:37:49;;;;;;;14.80;9.68;;;;;;;;;;5045450;28;20204;-31
2023/05/22 11:40:19;;;;;;;14.05;9.68;;;;;;;;;;5041267;28;20216;-30
2023/05/22 11:42:46;;;;;;;13.15;9.32;;;;;;;;;;5040175;28;20213;-27
2023/05/22 11:45:14;;;;;;;9.38;8.48;;;;;;;;;;5041871;28;20231;-27
2023/05/22 11:47:42;;;;;;;9.95;7.80;;;;;;;;;;5041835;28;20654;-29
2023/05/22 11:50:10;;;;;;;10.20;8.63;;;;;;;;;;5045525;28;20227;-29
2023/05/22 11:52:39;;;;;;;10.85;8.13;;;;;;;;;;5045647;28;20203;-27
2023/05/22 11:55:06;;;;;;;8.65;7.70;;;;;;;;;;5033890;28;20283;-27
2023/05/22 11:57:35;;;;;;;8.07;7.28;;;;;;;;;;5043723;28;20564;-31
2023/05/22 12:00:05;;;;;;;9.68;7.38;;;;;;;;;;5043752;28;20197;-30
2023/05/22 12:02:32;;;;;;;8.40;7.22;;;;;;;;;;5039242;28;20255;-30
2023/05/22 12:04:59;;;;;;;8.75;7.85;;;;;;;;;;5045998;28;20196;-29
2023/05/22 12:07:27;;;;;;;9.90;7.65;;;;;;;;;;5045300;28;20208;-28
2023/05/22 12:09:56;;;;;;;8.02;6.90;;;;;;;;;;5037958;28;20226;-27
2023/05/22 12:12:23;;;;;;;8.63;6.80;;;;;;;;;;5044675;28;20216;-29
2023/05/22 12:14:52;;;;;;;9.23;7.57;;;;;;;;;;5045343;28;20501;-27
2023/05/22 12:17:19;;;;;;;8.65;7.07;;;;;;;;;;5039177;28;20203;-25
2023/05/22 12:19:58;;;;;;;8.63;7.18;;;;;;;;;;5043430;28;20212;-28
2023/05/22 12:22:28;;;;;;;7.63;6.90;;;;;;;;;;5048572;28;20199;-28
2023/05/22 12:24:55;;;;;;;6.45;5.93;;;;;;;;;;5044666;28;20255;-30
2023/05/22 12:27:22;;;;;;;7.28;6.25;;;;;;;;;;5046811;28;20560;-27
2023/05/22 12:29:51;;;;;;;9.52;6.78;;;;;;;;;;5049628;28;20239;-27
2023/05/22 12:32:24;;;;;;;7.38;5.97;;;;;;;;;;5035747;28;20257;-29
2023/05/22 12:34:51;;;;;;;9.20;6.10;;;;;;;;;;5040247;28;20223;-27
2023/05/22 12:37:21;;;;;;;7.55;6.25;;;;;;;;;;5046365;28;20878;-30
2023/05/22 12:39:56;;;;;;;8.20;6.25;;;;;;;;;;5042347;28;20201;-29
2023/05/22 12:42:23;;;;;;;7.55;6.78;;;;;;;;;;5037385;28;20228;-29
2023/05/22 12:44:51;;;;;;;6.95;5.75;;;;;;;;;;5048652;28;20287;-29
2023/05/22 12:47:20;;;;;;;8.43;6.70;;;;;;;;;;5039699;28;20600;-27
2023/05/22 12:49:47;;;;;;;8.90;6.05;;;;;;;;;;5047674;28;20229;-27
2023/05/22 12:52:15;;;;;;;7.00;6.28;;;;;;;;;;5049314;28;20570;-28
2023/05/22 12:54:42;;;;;;;7.57;6.68;;;;;;;;;;5044994;28;20204;-27
2023/05/22 12:57:09;;;;;;;9.80;6.32;;;;;;;;;;5041801;28;20236;-26
2023/05/22 12:59:36;;;;;;;7.82;7.03;;;;;;;;;;5046780;28;20209;-26
2023/05/22 13:02:04;;;;;;;8.00;7.10;;;;;;;;;;5034045;28;20201;-26
2023/05/22 13:04:33;;;;;;;7.72;7.00;;;;;;;;;;5046201;28;20220;-30
2023/05/22 13:07:00;;;;;;;7.38;6.68;;;;;;;;;;5048006;28;20233;-28
2023/05/22 13:09:27;;;;;;;7.93;6.60;;;;;;;;;;5043579;28;20236;-29
2023/05/22 13:11:54;;;;;;;7.57;6.28;;;;;;;;;;5033010;28;20209;-27
2023/05/22 13:14:21;;;;;;;8.07;6.13;;;;;;;;;;5032546;28;20224;-28
2023/05/22 13:16:48;;;;;;;6.85;6.00;;;;;;;;;;5044698;28;20231;-28
2023/05/22 13:19:15;;;;;;;6.80;6.05;;;;;;;;;;5048982;28;20861;-29
2023/05/22 13:21:44;;;;;;;9.43;6.20;;;;;;;;;;5047933;28;20207;-25
2023/05/22 13:24:11;;;;;;;7.47;6.13;;;;;;;;;;5036976;28;20220;-26
2023/05/22 13:26:38;;;;;;;11.43;6.57;;;;;;;;;;5045670;28;20240;-26
2023/05/22 13:29:05;;;;;;;6.80;6.10;;;;;;;;;;5051996;28;20197;-27
2023/05/22 13:31:36;;;;;;;7.72;5.88;;;;;;;;;;5036380;28;20242;-28
2023/05/22 13:34:03;;;;;;;7.55;6.25;;;;;;;;;;5044395;28;20290;-30
2023/05/22 13:36:30;;;;;;;7.97;6.53;;;;;;;;;;5045632;28;20312;-29
2023/05/22 13:38:59;;;;;;;8.45;5.88;;;;;;;;;;5046599;28;20209;-32
2023/05/22 13:41:26;;;;;;;6.63;6.00;;;;;;;;;;5041245;28;20307;-31
2023/05/22 13:43:53;;;;;;;7.72;6.38;;;;;;;;;;5043692;28;20262;-28
2023/05/22 13:46:21;;;;;;;6.55;5.88;;;;;;;;;;5032137;28;20230;-28
2023/05/22 13:48:49;;;;;;;6.68;5.85;;;;;;;;;;5045918;28;20206;-30
2023/05/22 13:51:16;;;;;;;7.50;6.72;;;;;;;;;;5039062;28;20333;-29
2023/05/22 13:53:43;;;;;;;7.45;6.70;;;;;;;;;;5033173;28;20218;-26
2023/05/22 13:56:11;;;;;;;8.57;6.28;;;;;;;;;;5042299;28;20607;-28
2023/05/22 13:58:39;;;;;;;7.47;6.78;;;;;;;;;;5040726;28;20212;-28
2023/05/22 14:01:06;;;;;;;7.60;6.32;;;;;;;;;;5041747;28;20545;-27
2023/05/22 14:03:33;;;;;;;9.05;7.03;;;;;;;;;;5044393;28;20205;-25
2023/05/22 14:06:00;;;;;;;7.07;6.10;;;;;;;;;;5044331;28;20236;-27
2023/05/22 14:08:28;;;;;;;9.02;6.30;;;;;;;;;;5033449;28;20303;-31
2023/05/22 14:10:55;;;;;;;7.03;6.32;;;;;;;;;;5033823;28;20332;-26
2023/05/22 14:13:23;;;;;;;7.10;6.40;;;;;;;;;;5040370;28;20658;-30
2023/05/22 14:15:51;;;;;;;6.88;6.07;;;;;;;;;;5039240;28;20444;-27
2023/05/22 14:18:18;;;;;;;6.90;6.18;;;;;;;;;;5039709;28;20209;-26
2023/05/22 14:20:45;;;;;;;6.30;5.70;;;;;;;;;;5031865;28;20287;-30
2023/05/22 14:23:13;;;;;;;8.13;5.47;;;;;;;;;;5039816;28;20304;-30
2023/05/22 14:25:41;;;;;;;6.38;5.70;;;;;;;;;;5041949;28;20217;-26
2023/05/22 14:28:09;;;;;;;6.53;5.63;;;;;;;;;;5035285;28;20237;-31
2023/05/22 14:30:38;;;;;;;5.90;5.28;;;;;;;;;;5028675;28;20226;-28
2023/05/22 14:33:05;;;;;;;6.95;6.03;;;;;;;;;;5035445;28;20205;-29
2023/05/22 14:35:33;;;;;;;7.45;5.70;;;;;;;;;;5041749;28;20220;-30
2023/05/22 14:38:00;;;;;;;8.45;5.85;;;;;;;;;;5039355;28;20202;-29
2023/05/22 14:40:27;;;;;;;8.65;5.47;;;;;;;;;;5042813;28;20204;-26
2023/05/22 14:42:54;;;;;;;8.55;6.75;;;;;;;;;;5047003;28;20713;-27
2023/05/22 14:45:21;;;;;;;7.55;6.78;;;;;;;;;;5040425;28;20227;-29